createdAt,value
2019-01-20T00:00:18.097Z,20.17
2019-01-20T00:03:24.534Z,19.40
2019-01-20T00:06:29.380Z,17.23
2019-01-20T00:09:34.222Z,18.20
2019-01-20T00:12:39.087Z,19.97
2019-01-20T00:15:45.554Z,22.90
2019-01-20T00:18:51.486Z,22.90
2019-01-20T00:21:56.319Z,23.77
2019-01-20T00:25:01.227Z,22.20
2019-01-20T00:28:06.113Z,23.73
2019-01-20T00:31:10.956Z,19.17
2019-01-20T00:34:15.785Z,21.43
2019-01-20T00:37:21.531Z,23.73
2019-01-20T00:40:26.447Z,21.63
2019-01-20T00:43:31.273Z,21.40
2019-01-20T00:46:36.119Z,21.07
2019-01-20T00:49:40.938Z,23.60
2019-01-20T00:52:45.890Z,24.12
2019-01-20T00:55:50.749Z,25.80
2019-01-20T00:58:55.655Z,21.60
2019-01-20T01:02:00.585Z,26.73
2019-01-20T01:05:06.455Z,24.57
2019-01-20T01:08:11.694Z,24.37
2019-01-20T01:11:16.525Z,20.50
2019-01-20T01:14:21.406Z,24.33
2019-01-20T01:17:26.279Z,24.60
2019-01-20T01:20:31.142Z,24.33
2019-01-20T01:23:36.301Z,25.55
2019-01-20T01:26:41.219Z,22.30
2019-01-20T01:29:46.050Z,24.67
2019-01-20T01:32:51.388Z,25.25
2019-01-20T01:35:56.326Z,24.03
2019-01-20T01:39:01.198Z,24.50
2019-01-20T01:42:07.123Z,25.60
2019-01-20T01:45:14.824Z,23.23
2019-01-20T01:48:19.650Z,24.10
2019-01-20T01:51:24.524Z,24.73
2019-01-20T01:54:29.519Z,27.47
2019-01-20T01:57:34.358Z,24.00
2019-01-20T02:00:39.348Z,25.37
2019-01-20T02:03:44.211Z,21.77
2019-01-20T02:06:49.041Z,25.77
2019-01-20T02:09:54.944Z,23.60
2019-01-20T02:13:00.022Z,25.47
2019-01-20T02:16:05.643Z,24.40
2019-01-20T02:19:10.469Z,24.57
2019-01-20T02:22:15.343Z,23.17
2019-01-20T02:25:20.307Z,25.17
2019-01-20T02:28:26.045Z,24.83
2019-01-20T02:31:30.881Z,24.93
2019-01-20T02:34:35.762Z,26.23
2019-01-20T02:37:40.707Z,23.67
2019-01-20T02:40:45.563Z,23.73
2019-01-20T02:43:50.501Z,23.87
2019-01-20T02:46:55.377Z,23.17
2019-01-20T02:50:00.217Z,20.73
2019-01-20T02:53:05.072Z,27.70
2019-01-20T02:56:09.902Z,22.93
2019-01-20T02:59:14.770Z,24.47
2019-01-20T03:02:19.704Z,22.07
2019-01-20T03:05:24.809Z,25.47
2019-01-20T03:08:29.703Z,27.20
2019-01-20T03:11:34.559Z,24.23
2019-01-20T03:14:39.377Z,27.20
2019-01-20T03:17:44.306Z,25.95
2019-01-20T03:20:49.385Z,25.83
2019-01-20T03:23:54.295Z,22.63
2019-01-20T03:26:59.113Z,24.73
2019-01-20T03:30:07.306Z,24.10
2019-01-20T03:33:12.248Z,25.93
2019-01-20T03:36:17.071Z,25.17
2019-01-20T03:39:21.928Z,25.20
2019-01-20T03:42:26.798Z,27.43
2019-01-20T03:45:31.662Z,25.10
2019-01-20T03:48:36.494Z,27.60
2019-01-20T03:51:41.357Z,28.20
2019-01-20T03:54:46.193Z,23.87
2019-01-20T03:57:51.053Z,23.63
2019-01-20T04:00:55.907Z,23.73
2019-01-20T04:04:00.761Z,25.37
2019-01-20T04:07:24.935Z,27.17
2019-01-20T04:10:29.805Z,25.80
2019-01-20T04:13:34.703Z,26.13
2019-01-20T04:16:39.540Z,26.97
2019-01-20T04:19:44.391Z,25.07
2019-01-20T04:22:49.255Z,28.60
2019-01-20T04:25:54.102Z,28.93
2019-01-20T04:28:58.934Z,25.97
2019-01-20T04:32:03.903Z,28.30
2019-01-20T04:35:10.705Z,25.53
2019-01-20T04:38:15.598Z,25.70
2019-01-20T04:41:20.441Z,26.70
2019-01-20T04:44:25.330Z,26.80
2019-01-20T04:47:30.266Z,26.97
2019-01-20T04:50:35.137Z,31.70
2019-01-20T04:53:40.666Z,26.25
2019-01-20T04:56:45.494Z,26.50
2019-01-20T04:59:50.359Z,30.47
2019-01-20T05:02:55.235Z,28.00
2019-01-20T05:06:00.534Z,24.87
2019-01-20T05:09:06.779Z,25.37
2019-01-20T05:12:11.643Z,28.57
2019-01-20T05:15:19.880Z,28.53
2019-01-20T05:18:24.729Z,30.20
2019-01-20T05:21:29.578Z,29.80
2019-01-20T05:24:34.447Z,28.93
2019-01-20T05:27:39.415Z,30.60
2019-01-20T05:30:44.291Z,29.32
2019-01-20T05:33:49.144Z,29.90
2019-01-20T05:36:54.012Z,31.63
2019-01-20T05:39:59.630Z,32.48
2019-01-20T05:43:04.544Z,30.70
2019-01-20T05:46:09.404Z,28.67
2019-01-20T05:49:14.317Z,29.80
2019-01-20T05:52:19.141Z,32.00
2019-01-20T05:55:24.008Z,30.53
2019-01-20T05:58:28.924Z,30.23
2019-01-20T06:01:33.770Z,29.10
2019-01-20T06:04:38.711Z,28.97
2019-01-20T06:07:43.626Z,29.67
2019-01-20T06:10:48.511Z,32.83
2019-01-20T06:13:53.403Z,30.63
2019-01-20T06:16:58.322Z,30.30
2019-01-20T06:20:04.354Z,31.40
2019-01-20T06:23:09.229Z,29.57
2019-01-20T06:26:14.190Z,27.13
2019-01-20T06:29:19.319Z,32.23
2019-01-20T06:32:24.175Z,28.60
2019-01-20T06:35:29.039Z,32.37
2019-01-20T06:38:33.946Z,31.00
2019-01-20T06:41:38.877Z,29.93
2019-01-20T06:44:43.800Z,31.43
2019-01-20T06:47:48.645Z,30.87
2019-01-20T06:50:54.559Z,30.97
2019-01-20T06:53:59.465Z,30.70
2019-01-20T06:57:04.334Z,29.70
2019-01-20T07:00:17.685Z,27.83
2019-01-20T07:03:22.589Z,30.63
2019-01-20T07:06:27.430Z,31.48
2019-01-20T07:09:32.389Z,29.85
2019-01-20T07:12:37.882Z,32.90
2019-01-20T07:15:42.759Z,31.77
2019-01-20T07:18:47.618Z,32.77
2019-01-20T07:21:52.490Z,32.30
2019-01-20T07:24:57.902Z,31.70
2019-01-20T07:28:02.957Z,32.58
2019-01-20T07:31:07.871Z,33.17
2019-01-20T07:34:12.721Z,32.37
2019-01-20T07:37:17.615Z,30.90
2019-01-20T07:40:23.462Z,31.40
2019-01-20T07:43:28.287Z,30.73
2019-01-20T07:46:33.259Z,27.10
2019-01-20T07:49:38.107Z,30.33
2019-01-20T07:52:43.098Z,30.83
2019-01-20T07:55:48.846Z,33.30
2019-01-20T07:58:53.718Z,32.20
2019-01-20T08:01:58.549Z,30.17
2019-01-20T08:05:03.763Z,32.83
2019-01-20T08:08:08.586Z,32.37
2019-01-20T08:11:13.435Z,33.13
2019-01-20T08:14:19.506Z,34.57
2019-01-20T08:17:24.835Z,32.73
2019-01-20T08:20:29.734Z,30.87
2019-01-20T08:23:34.622Z,32.30
2019-01-20T08:26:39.608Z,32.20
2019-01-20T08:29:44.492Z,32.20
2019-01-20T08:32:49.576Z,30.97
2019-01-20T08:35:54.454Z,32.73
2019-01-20T08:38:59.317Z,30.20
2019-01-20T08:42:04.241Z,31.20
2019-01-20T08:45:12.251Z,30.68
2019-01-20T08:48:22.963Z,32.97
2019-01-20T08:51:28.803Z,32.63
2019-01-20T08:54:33.961Z,30.68
2019-01-20T08:57:38.849Z,30.43
2019-01-20T09:00:43.738Z,33.30
2019-01-20T09:03:48.657Z,32.03
2019-01-20T09:06:53.510Z,32.10
2019-01-20T09:09:59.066Z,32.13
2019-01-20T09:13:05.747Z,32.67
2019-01-20T09:16:11.358Z,33.97
2019-01-20T09:19:16.310Z,33.13
2019-01-20T09:22:21.249Z,34.53
2019-01-20T09:25:26.436Z,30.87
2019-01-20T09:28:31.377Z,34.77
2019-01-20T09:31:36.251Z,33.47
2019-01-20T09:34:41.088Z,33.17
2019-01-20T09:37:46.058Z,34.20
2019-01-20T09:40:50.947Z,32.63
2019-01-20T09:43:56.536Z,35.25
2019-01-20T09:47:01.485Z,35.00
2019-01-20T09:50:08.290Z,33.23
2019-01-20T09:53:13.165Z,34.98
2019-01-20T09:56:18.075Z,32.95
2019-01-20T09:59:22.937Z,36.27
2019-01-20T10:02:27.864Z,36.00
2019-01-20T10:05:33.974Z,34.17
2019-01-20T10:08:39.057Z,34.10
2019-01-20T10:11:43.876Z,34.60
2019-01-20T10:14:48.710Z,31.80
2019-01-20T10:17:53.610Z,35.00
2019-01-20T10:20:58.495Z,35.25
2019-01-20T10:24:03.312Z,32.80
2019-01-20T10:27:09.484Z,32.27
2019-01-20T10:30:26.006Z,34.18
2019-01-20T10:33:30.951Z,33.37
2019-01-20T10:36:35.827Z,32.50
2019-01-20T10:39:40.758Z,30.90
2019-01-20T10:42:45.645Z,32.27
2019-01-20T10:45:51.391Z,31.17
2019-01-20T10:48:56.241Z,31.87
2019-01-20T10:52:01.679Z,32.43
2019-01-20T10:55:07.771Z,33.50
2019-01-20T10:58:12.702Z,33.37
2019-01-20T11:01:17.702Z,30.73
2019-01-20T11:04:22.594Z,28.57
2019-01-20T11:07:27.470Z,29.83
2019-01-20T11:10:33.434Z,28.70
2019-01-20T11:13:38.272Z,29.07
2019-01-20T11:16:43.135Z,28.32
2019-01-20T11:19:47.977Z,28.63
2019-01-20T11:22:54.591Z,27.93
2019-01-20T11:25:59.689Z,27.40
2019-01-20T11:29:04.530Z,27.00
2019-01-20T11:32:09.406Z,27.97
2019-01-20T11:35:17.041Z,27.10
2019-01-20T11:38:21.932Z,26.93
2019-01-20T11:41:28.413Z,25.17
2019-01-20T11:44:33.428Z,25.00
2019-01-20T11:47:41.991Z,26.07
2019-01-20T11:50:45.750Z,26.83
2019-01-20T11:53:50.625Z,25.90
2019-01-20T11:56:55.600Z,25.23
2019-01-20T12:00:00.475Z,27.13
2019-01-20T12:03:05.559Z,26.97
2019-01-20T12:06:10.457Z,27.13
2019-01-20T12:09:15.385Z,26.23
2019-01-20T12:12:20.323Z,26.15
2019-01-20T12:15:25.153Z,25.70
2019-01-20T12:18:30.016Z,25.57
2019-01-20T12:21:34.920Z,25.37
2019-01-20T12:24:39.757Z,23.07
2019-01-20T12:27:44.601Z,23.00
2019-01-20T12:30:49.451Z,25.67
2019-01-20T12:33:54.394Z,25.90
2019-01-20T12:36:59.262Z,23.53
2019-01-20T12:40:07.586Z,23.17
2019-01-20T12:43:12.471Z,22.60
2019-01-20T12:46:17.411Z,24.87
2019-01-20T12:49:22.238Z,25.83
2019-01-20T12:52:27.075Z,21.80
2019-01-20T12:55:32.069Z,25.00
2019-01-20T12:58:36.889Z,23.13
2019-01-20T13:01:42.393Z,25.93
2019-01-20T13:04:47.328Z,25.23
2019-01-20T13:07:52.163Z,22.37
2019-01-20T13:10:57.030Z,25.10
2019-01-20T13:14:01.899Z,23.13
2019-01-20T13:17:06.787Z,26.53
2019-01-20T13:20:18.544Z,25.53
2019-01-20T13:23:23.464Z,26.43
2019-01-20T13:26:29.151Z,26.67
2019-01-20T13:29:34.071Z,26.90
2019-01-20T13:32:38.920Z,27.37
2019-01-20T13:35:43.754Z,23.93
2019-01-20T13:38:48.609Z,25.10
2019-01-20T13:41:54.411Z,25.17
2019-01-20T13:44:59.311Z,24.83
2019-01-20T13:48:04.457Z,23.10
2019-01-20T13:51:09.338Z,21.47
2019-01-20T13:54:15.094Z,23.03
2019-01-20T13:57:21.719Z,22.60
2019-01-20T14:00:26.905Z,24.45
2019-01-20T14:03:31.842Z,27.13
2019-01-20T14:06:36.796Z,26.55
2019-01-20T14:09:41.733Z,25.93
2019-01-20T14:12:46.777Z,27.13
2019-01-20T14:15:51.646Z,26.17
2019-01-20T14:18:56.813Z,27.60
2019-01-20T14:22:01.814Z,26.03
2019-01-20T14:25:09.710Z,25.07
2019-01-20T14:28:14.599Z,26.23
2019-01-20T14:31:19.521Z,25.97
2019-01-20T14:34:25.444Z,25.03
2019-01-20T14:37:30.429Z,25.77
2019-01-20T14:40:35.473Z,24.17
2019-01-20T14:43:41.890Z,26.40
2019-01-20T14:46:46.916Z,24.07
2019-01-20T14:49:51.811Z,24.60
2019-01-20T14:52:56.824Z,24.60
2019-01-20T14:56:01.721Z,23.83
2019-01-20T14:59:07.653Z,23.13
2019-01-20T15:02:13.415Z,24.47
2019-01-20T15:05:18.465Z,24.00
2019-01-20T15:08:24.742Z,26.80
2019-01-20T15:11:29.652Z,25.12
2019-01-20T15:14:34.533Z,22.73
2019-01-20T15:17:41.439Z,23.80
2019-01-20T15:20:46.273Z,20.50
2019-01-20T15:23:51.150Z,24.35
2019-01-20T15:26:56.019Z,22.20
2019-01-20T15:30:00.956Z,18.83
2019-01-20T15:33:06.448Z,21.33
2019-01-20T15:36:11.541Z,23.80
2019-01-20T15:39:16.465Z,21.17
2019-01-20T15:42:21.382Z,23.13
2019-01-20T15:45:26.203Z,22.67
2019-01-20T15:48:31.061Z,21.97
2019-01-20T15:51:36.007Z,21.93
2019-01-20T15:54:40.841Z,22.17
2019-01-20T15:57:45.663Z,20.17
2019-01-20T16:00:50.588Z,21.43
2019-01-20T16:03:55.534Z,21.35
2019-01-20T16:07:00.376Z,20.47
2019-01-20T16:10:11.620Z,21.07
2019-01-20T16:13:16.575Z,20.67
2019-01-20T16:16:21.957Z,20.93
2019-01-20T16:19:27.042Z,20.92
2019-01-20T16:22:31.877Z,19.25
2019-01-20T16:25:37.294Z,20.05
2019-01-20T16:28:42.150Z,19.37
2019-01-20T16:31:47.214Z,20.40
2019-01-20T16:34:56.780Z,20.67
2019-01-20T16:38:04.371Z,18.77
2019-01-20T16:41:09.578Z,22.07
2019-01-20T16:44:14.790Z,18.43
2019-01-20T16:47:19.844Z,20.07
2019-01-20T16:50:25.975Z,20.60
2019-01-20T16:53:31.106Z,19.83
2019-01-20T16:56:36.369Z,20.55
2019-01-20T16:59:41.487Z,19.95
2019-01-20T17:02:46.766Z,21.25
2019-01-20T17:05:51.859Z,20.23
2019-01-20T17:08:56.800Z,19.97
2019-01-20T17:12:01.674Z,22.03
2019-01-20T17:15:09.642Z,21.93
2019-01-20T17:18:14.544Z,21.43
2019-01-20T17:21:19.602Z,21.13
2019-01-20T17:24:24.490Z,20.33
2019-01-20T17:27:31.436Z,20.10
2019-01-20T17:30:39.278Z,22.07
2019-01-20T17:33:44.141Z,21.57
2019-01-20T17:36:50.733Z,22.57
2019-01-20T17:39:55.644Z,22.13
2019-01-20T17:43:00.538Z,21.23
2019-01-20T17:46:05.683Z,22.23
2019-01-20T17:49:10.633Z,21.87
2019-01-20T17:52:15.611Z,24.80
2019-01-20T17:55:20.477Z,22.27
2019-01-20T17:58:25.358Z,22.65
2019-01-20T18:01:30.219Z,24.45
2019-01-20T18:04:35.135Z,24.63
2019-01-20T18:07:40.055Z,22.50
2019-01-20T18:10:44.908Z,24.20
2019-01-20T18:13:49.737Z,24.15
2019-01-20T18:16:54.577Z,24.57
2019-01-20T18:19:59.425Z,23.87
2019-01-20T18:23:04.458Z,25.00
2019-01-20T18:26:09.345Z,23.87
2019-01-20T18:29:14.194Z,23.27
2019-01-20T18:32:19.962Z,23.50
2019-01-20T18:35:27.192Z,22.63
2019-01-20T18:38:32.143Z,24.47
2019-01-20T18:41:37.193Z,22.17
2019-01-20T18:44:42.117Z,23.33
2019-01-20T18:47:47.192Z,24.03
2019-01-20T18:50:52.049Z,22.30
2019-01-20T18:53:57.086Z,24.10
2019-01-20T18:57:01.940Z,24.07
2019-01-20T19:00:15.764Z,24.23
2019-01-20T19:03:21.474Z,23.43
2019-01-20T19:06:26.433Z,19.77
2019-01-20T19:09:33.198Z,21.00
2019-01-20T19:12:38.136Z,23.80
2019-01-20T19:15:43.311Z,23.90
2019-01-20T19:18:48.171Z,22.17
2019-01-20T19:21:53.269Z,25.43
2019-01-20T19:24:58.195Z,24.52
2019-01-20T19:28:03.132Z,23.70
2019-01-20T19:31:08.040Z,25.07
2019-01-20T19:34:12.937Z,25.23
2019-01-20T19:37:17.827Z,25.30
2019-01-20T19:40:22.691Z,25.17
2019-01-20T19:43:27.622Z,26.27
2019-01-20T19:46:33.620Z,23.43
2019-01-20T19:49:38.545Z,27.50
2019-01-20T19:52:43.662Z,36.80
2019-01-20T19:55:48.867Z,30.57
2019-01-20T19:58:53.926Z,24.23
2019-01-20T20:01:59.442Z,24.55
2019-01-20T20:05:08.206Z,24.10
2019-01-20T20:08:13.491Z,25.07
2019-01-20T20:11:18.346Z,21.17
2019-01-20T20:14:23.212Z,21.73
2019-01-20T20:17:28.075Z,23.30
2019-01-20T20:20:32.930Z,21.53
2019-01-20T20:23:37.795Z,20.57
2019-01-20T20:26:42.691Z,22.47
2019-01-20T20:29:47.562Z,21.20
2019-01-20T20:32:52.486Z,21.70
2019-01-20T20:35:57.341Z,22.10
2019-01-20T20:39:02.215Z,20.27
2019-01-20T20:42:08.392Z,19.00
2019-01-20T20:45:15.979Z,21.73
2019-01-20T20:48:21.159Z,18.67
2019-01-20T20:51:26.049Z,18.43
2019-01-20T20:54:35.370Z,20.53
2019-01-20T20:57:37.671Z,20.07
2019-01-20T21:00:42.554Z,20.00
2019-01-20T21:03:47.460Z,19.27
2019-01-20T21:06:52.308Z,20.12
2019-01-20T21:09:57.454Z,19.73
2019-01-20T21:13:02.396Z,18.80
2019-01-20T21:16:07.257Z,19.23
2019-01-20T21:19:12.106Z,19.00
2019-01-20T21:22:17.023Z,19.50
2019-01-20T21:25:21.890Z,17.83
2019-01-20T21:28:26.762Z,17.50
2019-01-20T21:31:31.626Z,19.20
2019-01-20T21:34:36.586Z,18.67
2019-01-20T21:37:41.498Z,15.93
2019-01-20T21:40:46.497Z,17.57
2019-01-20T21:43:51.421Z,18.03
2019-01-20T21:46:56.347Z,19.00
2019-01-20T21:50:01.194Z,17.40
2019-01-20T21:53:06.321Z,18.90
2019-01-20T21:56:11.218Z,17.55
2019-01-20T21:59:16.085Z,18.67
2019-01-20T22:02:20.955Z,19.73
2019-01-20T22:05:25.874Z,19.23
2019-01-20T22:08:50.045Z,18.67
2019-01-20T22:11:55.008Z,19.20
2019-01-20T22:14:59.854Z,18.47
2019-01-20T22:18:05.040Z,17.50
2019-01-20T22:21:10.847Z,18.07
2019-01-20T22:24:15.684Z,17.57
2019-01-20T22:27:20.556Z,19.33
2019-01-20T22:30:26.373Z,17.03
2019-01-20T22:33:31.233Z,18.67
2019-01-20T22:36:36.073Z,20.83
2019-01-20T22:39:40.907Z,21.67
2019-01-20T22:42:46.095Z,18.90
2019-01-20T22:45:50.905Z,19.07
2019-01-20T22:48:55.746Z,22.57
2019-01-20T22:52:00.625Z,22.17
2019-01-20T22:55:09.271Z,21.23
2019-01-20T22:58:14.107Z,20.03
2019-01-20T23:01:19.898Z,23.00
2019-01-20T23:04:24.750Z,21.57
2019-01-20T23:07:29.604Z,21.07
2019-01-20T23:10:34.534Z,24.33
2019-01-20T23:13:39.363Z,24.07
2019-01-20T23:16:44.262Z,21.20
2019-01-20T23:19:49.131Z,21.93
2019-01-20T23:22:53.975Z,19.50
2019-01-20T23:25:58.805Z,23.57
2019-01-20T23:29:03.829Z,21.35
2019-01-20T23:32:08.763Z,21.60
2019-01-20T23:35:14.039Z,21.80
2019-01-20T23:38:19.067Z,20.60
2019-01-20T23:41:23.995Z,22.90
2019-01-20T23:44:28.818Z,23.13
2019-01-20T23:47:33.697Z,22.50
2019-01-20T23:50:38.510Z,22.73
2019-01-20T23:53:43.371Z,22.30
2019-01-20T23:56:48.190Z,21.33
2019-01-20T23:59:53.065Z,20.87
